sensor_id;sensor_type;location;lat;lon;timestamp;P1;durP1;ratioP1;P2;durP2;ratioP2
3881;SDS011;1956;53.482;10.238;2023-10-13T00:04:34;2.87;;;1.90;;
3881;SDS011;1956;53.482;10.238;2023-10-13T00:09:37;14.33;;;2.30;;
3881;SDS011;1956;53.482;10.238;2023-10-13T00:14:37;7.50;;;2.38;;
3881;SDS011;1956;53.482;10.238;2023-10-13T00:19:38;5.50;;;2.50;;
3881;SDS011;1956;53.482;10.238;2023-10-13T00:24:44;6.03;;;3.13;;
3881;SDS011;1956;53.482;10.238;2023-10-13T00:29:48;7.67;;;3.07;;
3881;SDS011;1956;53.482;10.238;2023-10-13T00:34:50;4.50;;;3.20;;
3881;SDS011;1956;53.482;10.238;2023-10-13T00:39:56;11.33;;;3.40;;
3881;SDS011;1956;53.482;10.238;2023-10-13T00:44:56;17.17;;;3.30;;
3881;SDS011;1956;53.482;10.238;2023-10-13T00:49:57;4.57;;;2.90;;
3881;SDS011;1956;53.482;10.238;2023-10-13T00:54:57;15.95;;;3.40;;
3881;SDS011;1956;53.482;10.238;2023-10-13T01:00:00;14.13;;;2.90;;
3881;SDS011;1956;53.482;10.238;2023-10-13T01:05:12;10.77;;;2.87;;
3881;SDS011;1956;53.482;10.238;2023-10-13T01:10:20;13.03;;;4.20;;
3881;SDS011;1956;53.482;10.238;2023-10-13T01:15:24;12.90;;;3.77;;
3881;SDS011;1956;53.482;10.238;2023-10-13T01:20:29;12.17;;;3.63;;
3881;SDS011;1956;53.482;10.238;2023-10-13T01:25:30;11.00;;;3.27;;
3881;SDS011;1956;53.482;10.238;2023-10-13T01:30:30;5.90;;;3.60;;
3881;SDS011;1956;53.482;10.238;2023-10-13T01:35:31;12.63;;;5.27;;
3881;SDS011;1956;53.482;10.238;2023-10-13T01:40:41;13.10;;;4.00;;
3881;SDS011;1956;53.482;10.238;2023-10-13T01:45:43;13.50;;;3.90;;
3881;SDS011;1956;53.482;10.238;2023-10-13T01:50:49;12.07;;;4.90;;
3881;SDS011;1956;53.482;10.238;2023-10-13T01:55:55;14.80;;;5.00;;
3881;SDS011;1956;53.482;10.238;2023-10-13T02:00:57;18.63;;;4.63;;
3881;SDS011;1956;53.482;10.238;2023-10-13T02:05:59;14.60;;;5.10;;
3881;SDS011;1956;53.482;10.238;2023-10-13T02:11:04;13.03;;;5.90;;
3881;SDS011;1956;53.482;10.238;2023-10-13T02:16:07;12.83;;;5.57;;
3881;SDS011;1956;53.482;10.238;2023-10-13T02:21:07;19.88;;;5.78;;
3881;SDS011;1956;53.482;10.238;2023-10-13T02:26:13;12.10;;;5.07;;
3881;SDS011;1956;53.482;10.238;2023-10-13T02:31:27;12.70;;;5.77;;
3881;SDS011;1956;53.482;10.238;2023-10-13T02:36:27;14.40;;;5.83;;
3881;SDS011;1956;53.482;10.238;2023-10-13T02:41:49;11.20;;;6.33;;
3881;SDS011;1956;53.482;10.238;2023-10-13T02:46:49;16.13;;;6.17;;
3881;SDS011;1956;53.482;10.238;2023-10-13T02:51:50;16.40;;;6.43;;
3881;SDS011;1956;53.482;10.238;2023-10-13T02:56:52;16.13;;;6.70;;
3881;SDS011;1956;53.482;10.238;2023-10-13T03:02:03;27.43;;;7.87;;
3881;SDS011;1956;53.482;10.238;2023-10-13T03:07:22;17.57;;;7.63;;
3881;SDS011;1956;53.482;10.238;2023-10-13T03:12:23;17.43;;;8.63;;
3881;SDS011;1956;53.482;10.238;2023-10-13T03:17:24;23.77;;;8.13;;
3881;SDS011;1956;53.482;10.238;2023-10-13T03:22:33;14.33;;;7.53;;
3881;SDS011;1956;53.482;10.238;2023-10-13T03:27:34;19.77;;;7.30;;
3881;SDS011;1956;53.482;10.238;2023-10-13T03:33:13;18.57;;;8.50;;
3881;SDS011;1956;53.482;10.238;2023-10-13T03:38:14;24.80;;;8.73;;
3881;SDS011;1956;53.482;10.238;2023-10-13T03:43:17;15.67;;;8.27;;
3881;SDS011;1956;53.482;10.238;2023-10-13T03:48:21;21.33;;;8.30;;
3881;SDS011;1956;53.482;10.238;2023-10-13T03:53:39;14.83;;;8.10;;
3881;SDS011;1956;53.482;10.238;2023-10-13T03:58:53;17.47;;;8.63;;
3881;SDS011;1956;53.482;10.238;2023-10-13T04:04:06;14.13;;;8.60;;
3881;SDS011;1956;53.482;10.238;2023-10-13T04:09:17;16.03;;;8.60;;
3881;SDS011;1956;53.482;10.238;2023-10-13T04:14:50;20.23;;;9.23;;
3881;SDS011;1956;53.482;10.238;2023-10-13T04:20:17;20.40;;;8.97;;
3881;SDS011;1956;53.482;10.238;2023-10-13T04:25:47;17.73;;;8.57;;
3881;SDS011;1956;53.482;10.238;2023-10-13T04:31:07;16.33;;;8.70;;
3881;SDS011;1956;53.482;10.238;2023-10-13T04:36:24;18.90;;;8.10;;
3881;SDS011;1956;53.482;10.238;2023-10-13T04:41:42;18.33;;;8.37;;
3881;SDS011;1956;53.482;10.238;2023-10-13T04:46:42;19.80;;;9.30;;
3881;SDS011;1956;53.482;10.238;2023-10-13T04:52:06;17.20;;;9.87;;
3881;SDS011;1956;53.482;10.238;2023-10-13T04:57:24;20.83;;;10.13;;
3881;SDS011;1956;53.482;10.238;2023-10-13T05:02:54;16.87;;;10.17;;
3881;SDS011;1956;53.482;10.238;2023-10-13T05:08:20;15.43;;;9.00;;
3881;SDS011;1956;53.482;10.238;2023-10-13T05:13:39;22.50;;;10.10;;
3881;SDS011;1956;53.482;10.238;2023-10-13T05:18:57;20.73;;;9.70;;
3881;SDS011;1956;53.482;10.238;2023-10-13T05:24:16;23.23;;;11.90;;
3881;SDS011;1956;53.482;10.238;2023-10-13T05:29:38;23.10;;;11.07;;
3881;SDS011;1956;53.482;10.238;2023-10-13T05:34:57;24.87;;;11.23;;
3881;SDS011;1956;53.482;10.238;2023-10-13T05:40:16;17.30;;;10.43;;
3881;SDS011;1956;53.482;10.238;2023-10-13T05:45:35;20.63;;;11.40;;
3881;SDS011;1956;53.482;10.238;2023-10-13T05:51:01;24.90;;;13.60;;
3881;SDS011;1956;53.482;10.238;2023-10-13T05:56:19;26.57;;;13.77;;
3881;SDS011;1956;53.482;10.238;2023-10-13T06:01:38;42.47;;;14.80;;
3881;SDS011;1956;53.482;10.238;2023-10-13T06:06:57;35.20;;;16.33;;
3881;SDS011;1956;53.482;10.238;2023-10-13T06:12:16;29.33;;;15.60;;
3881;SDS011;1956;53.482;10.238;2023-10-13T06:17:35;39.47;;;19.90;;
3881;SDS011;1956;53.482;10.238;2023-10-13T06:22:54;38.00;;;19.00;;
3881;SDS011;1956;53.482;10.238;2023-10-13T06:28:13;45.97;;;18.40;;
3881;SDS011;1956;53.482;10.238;2023-10-13T06:33:32;44.83;;;21.07;;
3881;SDS011;1956;53.482;10.238;2023-10-13T06:38:33;51.47;;;22.40;;
3881;SDS011;1956;53.482;10.238;2023-10-13T06:43:36;45.00;;;19.43;;
3881;SDS011;1956;53.482;10.238;2023-10-13T06:48:40;48.70;;;23.20;;
3881;SDS011;1956;53.482;10.238;2023-10-13T06:53:41;48.17;;;24.13;;
3881;SDS011;1956;53.482;10.238;2023-10-13T06:58:46;47.37;;;24.30;;
3881;SDS011;1956;53.482;10.238;2023-10-13T07:03:46;54.13;;;25.70;;
3881;SDS011;1956;53.482;10.238;2023-10-13T07:08:52;57.80;;;25.70;;
3881;SDS011;1956;53.482;10.238;2023-10-13T07:13:53;49.53;;;23.87;;
3881;SDS011;1956;53.482;10.238;2023-10-13T07:18:54;47.33;;;26.70;;
3881;SDS011;1956;53.482;10.238;2023-10-13T07:23:54;42.47;;;24.90;;
3881;SDS011;1956;53.482;10.238;2023-10-13T07:29:09;42.07;;;24.07;;
3881;SDS011;1956;53.482;10.238;2023-10-13T07:34:09;44.07;;;24.60;;
3881;SDS011;1956;53.482;10.238;2023-10-13T07:39:24;41.90;;;24.93;;
3881;SDS011;1956;53.482;10.238;2023-10-13T07:44:25;39.77;;;21.90;;
3881;SDS011;1956;53.482;10.238;2023-10-13T07:49:32;43.13;;;21.43;;
3881;SDS011;1956;53.482;10.238;2023-10-13T07:54:36;43.07;;;22.57;;
3881;SDS011;1956;53.482;10.238;2023-10-13T07:59:40;36.97;;;20.70;;
3881;SDS011;1956;53.482;10.238;2023-10-13T08:04:47;36.90;;;20.00;;
3881;SDS011;1956;53.482;10.238;2023-10-13T08:09:47;30.60;;;17.93;;
3881;SDS011;1956;53.482;10.238;2023-10-13T08:14:51;28.90;;;18.03;;
3881;SDS011;1956;53.482;10.238;2023-10-13T08:20:11;30.40;;;18.73;;
3881;SDS011;1956;53.482;10.238;2023-10-13T08:25:12;30.67;;;16.00;;
3881;SDS011;1956;53.482;10.238;2023-10-13T08:30:20;33.47;;;16.10;;
3881;SDS011;1956;53.482;10.238;2023-10-13T08:35:29;29.03;;;16.07;;
3881;SDS011;1956;53.482;10.238;2023-10-13T08:40:35;24.47;;;14.70;;
3881;SDS011;1956;53.482;10.238;2023-10-13T08:45:54;20.20;;;14.13;;
3881;SDS011;1956;53.482;10.238;2023-10-13T08:50:59;27.70;;;12.70;;
3881;SDS011;1956;53.482;10.238;2023-10-13T08:56:05;14.83;;;11.50;;
3881;SDS011;1956;53.482;10.238;2023-10-13T09:01:26;14.87;;;10.47;;
3881;SDS011;1956;53.482;10.238;2023-10-13T09:06:40;12.13;;;9.30;;
3881;SDS011;1956;53.482;10.238;2023-10-13T09:11:45;12.20;;;8.77;;
3881;SDS011;1956;53.482;10.238;2023-10-13T09:16:59;11.03;;;8.00;;
3881;SDS011;1956;53.482;10.238;2023-10-13T09:22:07;8.47;;;7.00;;
3881;SDS011;1956;53.482;10.238;2023-10-13T09:27:07;10.03;;;7.23;;
3881;SDS011;1956;53.482;10.238;2023-10-13T09:32:12;9.43;;;7.07;;
3881;SDS011;1956;53.482;10.238;2023-10-13T09:37:12;10.67;;;6.10;;
3881;SDS011;1956;53.482;10.238;2023-10-13T09:42:20;7.57;;;5.20;;
3881;SDS011;1956;53.482;10.238;2023-10-13T09:47:23;6.27;;;4.57;;
3881;SDS011;1956;53.482;10.238;2023-10-13T09:52:36;8.33;;;5.13;;
3881;SDS011;1956;53.482;10.238;2023-10-13T09:57:39;8.10;;;5.73;;
3881;SDS011;1956;53.482;10.238;2023-10-13T10:02:42;6.43;;;5.40;;
3881;SDS011;1956;53.482;10.238;2023-10-13T10:07:44;7.80;;;5.80;;
3881;SDS011;1956;53.482;10.238;2023-10-13T10:12:59;10.27;;;5.60;;
3881;SDS011;1956;53.482;10.238;2023-10-13T10:18:02;7.43;;;5.73;;
3881;SDS011;1956;53.482;10.238;2023-10-13T10:23:03;9.20;;;4.87;;
3881;SDS011;1956;53.482;10.238;2023-10-13T10:28:05;12.17;;;6.17;;
3881;SDS011;1956;53.482;10.238;2023-10-13T10:33:05;8.40;;;5.90;;
3881;SDS011;1956;53.482;10.238;2023-10-13T10:38:18;7.30;;;5.60;;
3881;SDS011;1956;53.482;10.238;2023-10-13T10:43:48;9.80;;;5.10;;
3881;SDS011;1956;53.482;10.238;2023-10-13T10:48:49;10.23;;;6.80;;
3881;SDS011;1956;53.482;10.238;2023-10-13T10:53:56;16.10;;;9.50;;
3881;SDS011;1956;53.482;10.238;2023-10-13T10:58:58;10.97;;;6.63;;
3881;SDS011;1956;53.482;10.238;2023-10-13T11:04:00;7.37;;;6.03;;
3881;SDS011;1956;53.482;10.238;2023-10-13T11:09:33;11.73;;;6.60;;
3881;SDS011;1956;53.482;10.238;2023-10-13T11:14:45;14.30;;;7.13;;
3881;SDS011;1956;53.482;10.238;2023-10-13T11:19:49;14.73;;;6.20;;
3881;SDS011;1956;53.482;10.238;2023-10-13T11:24:49;8.87;;;7.03;;
3881;SDS011;1956;53.482;10.238;2023-10-13T11:29:49;11.40;;;7.00;;
3881;SDS011;1956;53.482;10.238;2023-10-13T11:34:52;14.00;;;7.33;;
3881;SDS011;1956;53.482;10.238;2023-10-13T11:39:54;8.97;;;7.50;;
3881;SDS011;1956;53.482;10.238;2023-10-13T11:44:55;13.10;;;6.87;;
3881;SDS011;1956;53.482;10.238;2023-10-13T11:50:15;13.00;;;6.03;;
3881;SDS011;1956;53.482;10.238;2023-10-13T11:55:32;9.70;;;6.70;;
3881;SDS011;1956;53.482;10.238;2023-10-13T12:00:32;21.67;;;6.93;;
3881;SDS011;1956;53.482;10.238;2023-10-13T12:05:50;9.13;;;5.90;;
3881;SDS011;1956;53.482;10.238;2023-10-13T12:11:10;9.20;;;6.03;;
3881;SDS011;1956;53.482;10.238;2023-10-13T12:16:29;17.87;;;6.10;;
3881;SDS011;1956;53.482;10.238;2023-10-13T12:21:34;21.60;;;5.53;;
3881;SDS011;1956;53.482;10.238;2023-10-13T12:26:37;16.47;;;5.87;;
3881;SDS011;1956;53.482;10.238;2023-10-13T12:31:41;10.57;;;5.40;;
3881;SDS011;1956;53.482;10.238;2023-10-13T12:36:50;7.63;;;5.37;;
3881;SDS011;1956;53.482;10.238;2023-10-13T12:42:05;7.37;;;4.77;;
3881;SDS011;1956;53.482;10.238;2023-10-13T12:47:24;8.43;;;5.10;;
3881;SDS011;1956;53.482;10.238;2023-10-13T12:52:43;10.57;;;4.70;;
3881;SDS011;1956;53.482;10.238;2023-10-13T12:57:45;8.43;;;5.73;;
3881;SDS011;1956;53.482;10.238;2023-10-13T13:02:45;10.60;;;5.97;;
3881;SDS011;1956;53.482;10.238;2023-10-13T13:07:46;5.70;;;4.43;;
3881;SDS011;1956;53.482;10.238;2023-10-13T13:12:52;10.60;;;6.00;;
3881;SDS011;1956;53.482;10.238;2023-10-13T13:17:52;13.37;;;5.50;;
3881;SDS011;1956;53.482;10.238;2023-10-13T13:22:53;17.53;;;5.13;;
3881;SDS011;1956;53.482;10.238;2023-10-13T13:27:54;15.43;;;5.53;;
3881;SDS011;1956;53.482;10.238;2023-10-13T13:32:54;9.00;;;5.60;;
3881;SDS011;1956;53.482;10.238;2023-10-13T13:37:54;10.93;;;4.07;;
3881;SDS011;1956;53.482;10.238;2023-10-13T13:43:05;17.00;;;5.00;;
3881;SDS011;1956;53.482;10.238;2023-10-13T13:48:07;12.43;;;4.80;;
3881;SDS011;1956;53.482;10.238;2023-10-13T13:53:08;7.67;;;4.47;;
3881;SDS011;1956;53.482;10.238;2023-10-13T13:58:11;9.00;;;4.30;;
3881;SDS011;1956;53.482;10.238;2023-10-13T14:03:13;14.50;;;5.73;;
3881;SDS011;1956;53.482;10.238;2023-10-13T14:08:30;15.10;;;5.70;;
3881;SDS011;1956;53.482;10.238;2023-10-13T14:13:30;11.70;;;4.10;;
3881;SDS011;1956;53.482;10.238;2023-10-13T14:18:50;10.17;;;4.70;;
3881;SDS011;1956;53.482;10.238;2023-10-13T14:23:50;8.63;;;4.33;;
3881;SDS011;1956;53.482;10.238;2023-10-13T14:28:55;14.57;;;5.13;;
3881;SDS011;1956;53.482;10.238;2023-10-13T14:34:14;17.33;;;5.87;;
3881;SDS011;1956;53.482;10.238;2023-10-13T14:39:15;6.03;;;4.53;;
3881;SDS011;1956;53.482;10.238;2023-10-13T14:44:15;11.83;;;5.57;;
3881;SDS011;1956;53.482;10.238;2023-10-13T14:49:15;16.37;;;4.90;;
3881;SDS011;1956;53.482;10.238;2023-10-13T14:54:18;6.87;;;5.03;;
3881;SDS011;1956;53.482;10.238;2023-10-13T14:59:25;13.80;;;4.40;;
3881;SDS011;1956;53.482;10.238;2023-10-13T15:04:25;11.10;;;5.47;;
3881;SDS011;1956;53.482;10.238;2023-10-13T15:09:28;20.53;;;5.57;;
3881;SDS011;1956;53.482;10.238;2023-10-13T15:14:29;10.97;;;5.23;;
3881;SDS011;1956;53.482;10.238;2023-10-13T15:19:29;16.17;;;5.57;;
3881;SDS011;1956;53.482;10.238;2023-10-13T15:24:35;17.90;;;4.60;;
3881;SDS011;1956;53.482;10.238;2023-10-13T15:29:43;13.83;;;5.50;;
3881;SDS011;1956;53.482;10.238;2023-10-13T15:34:50;10.70;;;4.93;;
3881;SDS011;1956;53.482;10.238;2023-10-13T15:39:51;15.50;;;5.80;;
3881;SDS011;1956;53.482;10.238;2023-10-13T15:44:52;17.13;;;6.47;;
3881;SDS011;1956;53.482;10.238;2023-10-13T15:49:53;11.27;;;5.57;;
3881;SDS011;1956;53.482;10.238;2023-10-13T15:54:53;14.07;;;5.67;;
3881;SDS011;1956;53.482;10.238;2023-10-13T15:59:56;19.43;;;6.00;;
3881;SDS011;1956;53.482;10.238;2023-10-13T16:04:57;8.37;;;5.70;;
3881;SDS011;1956;53.482;10.238;2023-10-13T16:09:59;18.00;;;5.70;;
3881;SDS011;1956;53.482;10.238;2023-10-13T16:15:00;14.82;;;5.60;;
3881;SDS011;1956;53.482;10.238;2023-10-13T16:20:01;24.63;;;5.17;;
3881;SDS011;1956;53.482;10.238;2023-10-13T16:25:04;20.30;;;5.30;;
3881;SDS011;1956;53.482;10.238;2023-10-13T16:30:12;11.57;;;6.10;;
3881;SDS011;1956;53.482;10.238;2023-10-13T16:35:15;14.27;;;5.50;;
3881;SDS011;1956;53.482;10.238;2023-10-13T16:40:19;7.00;;;5.17;;
3881;SDS011;1956;53.482;10.238;2023-10-13T16:45:19;12.10;;;5.30;;
3881;SDS011;1956;53.482;10.238;2023-10-13T16:50:23;7.40;;;4.50;;
3881;SDS011;1956;53.482;10.238;2023-10-13T16:55:26;7.73;;;4.17;;
3881;SDS011;1956;53.482;10.238;2023-10-13T17:00:29;10.37;;;5.03;;
3881;SDS011;1956;53.482;10.238;2023-10-13T17:05:29;7.43;;;4.93;;
3881;SDS011;1956;53.482;10.238;2023-10-13T17:10:30;12.23;;;4.67;;
3881;SDS011;1956;53.482;10.238;2023-10-13T17:15:32;16.03;;;5.50;;
3881;SDS011;1956;53.482;10.238;2023-10-13T17:20:33;16.33;;;5.97;;
3881;SDS011;1956;53.482;10.238;2023-10-13T17:25:34;11.23;;;6.23;;
3881;SDS011;1956;53.482;10.238;2023-10-13T17:30:34;13.70;;;5.20;;
3881;SDS011;1956;53.482;10.238;2023-10-13T17:35:35;14.50;;;5.70;;
3881;SDS011;1956;53.482;10.238;2023-10-13T17:40:36;8.87;;;5.07;;
3881;SDS011;1956;53.482;10.238;2023-10-13T17:45:38;14.70;;;5.30;;
3881;SDS011;1956;53.482;10.238;2023-10-13T17:50:38;19.07;;;5.83;;
3881;SDS011;1956;53.482;10.238;2023-10-13T17:55:39;20.33;;;4.80;;
3881;SDS011;1956;53.482;10.238;2023-10-13T18:00:39;14.43;;;4.67;;
3881;SDS011;1956;53.482;10.238;2023-10-13T18:05:39;19.13;;;6.10;;
3881;SDS011;1956;53.482;10.238;2023-10-13T18:10:39;11.73;;;4.87;;
3881;SDS011;1956;53.482;10.238;2023-10-13T18:15:43;13.63;;;4.70;;
3881;SDS011;1956;53.482;10.238;2023-10-13T18:20:43;16.00;;;4.80;;
3881;SDS011;1956;53.482;10.238;2023-10-13T18:25:45;13.77;;;4.13;;
3881;SDS011;1956;53.482;10.238;2023-10-13T18:30:55;6.90;;;3.83;;
3881;SDS011;1956;53.482;10.238;2023-10-13T18:35:55;12.40;;;4.17;;
3881;SDS011;1956;53.482;10.238;2023-10-13T18:40:55;10.87;;;4.90;;
3881;SDS011;1956;53.482;10.238;2023-10-13T18:46:00;8.83;;;4.50;;
3881;SDS011;1956;53.482;10.238;2023-10-13T18:51:02;7.73;;;4.30;;
3881;SDS011;1956;53.482;10.238;2023-10-13T18:56:06;11.67;;;4.43;;
3881;SDS011;1956;53.482;10.238;2023-10-13T19:01:10;11.10;;;5.00;;
3881;SDS011;1956;53.482;10.238;2023-10-13T19:06:15;22.20;;;5.77;;
3881;SDS011;1956;53.482;10.238;2023-10-13T19:11:15;12.23;;;4.93;;
3881;SDS011;1956;53.482;10.238;2023-10-13T19:16:16;9.10;;;4.70;;
3881;SDS011;1956;53.482;10.238;2023-10-13T19:21:18;14.53;;;5.20;;
3881;SDS011;1956;53.482;10.238;2023-10-13T19:26:20;12.90;;;5.17;;
3881;SDS011;1956;53.482;10.238;2023-10-13T19:31:21;13.10;;;6.77;;
3881;SDS011;1956;53.482;10.238;2023-10-13T19:36:24;20.20;;;7.43;;
3881;SDS011;1956;53.482;10.238;2023-10-13T19:41:25;12.97;;;5.67;;
3881;SDS011;1956;53.482;10.238;2023-10-13T19:46:27;13.93;;;5.90;;
3881;SDS011;1956;53.482;10.238;2023-10-13T19:51:28;12.13;;;4.77;;
3881;SDS011;1956;53.482;10.238;2023-10-13T19:56:28;17.03;;;5.10;;
3881;SDS011;1956;53.482;10.238;2023-10-13T20:01:29;15.33;;;5.70;;
3881;SDS011;1956;53.482;10.238;2023-10-13T20:06:32;11.43;;;4.90;;
3881;SDS011;1956;53.482;10.238;2023-10-13T20:11:33;13.60;;;5.50;;
3881;SDS011;1956;53.482;10.238;2023-10-13T20:16:35;13.43;;;5.70;;
3881;SDS011;1956;53.482;10.238;2023-10-13T20:21:35;16.17;;;5.93;;
3881;SDS011;1956;53.482;10.238;2023-10-13T20:26:35;14.27;;;5.27;;
3881;SDS011;1956;53.482;10.238;2023-10-13T20:31:47;10.50;;;5.00;;
3881;SDS011;1956;53.482;10.238;2023-10-13T20:36:48;13.90;;;5.63;;
3881;SDS011;1956;53.482;10.238;2023-10-13T20:41:49;17.37;;;5.93;;
3881;SDS011;1956;53.482;10.238;2023-10-13T20:46:49;10.60;;;5.40;;
3881;SDS011;1956;53.482;10.238;2023-10-13T20:51:49;15.03;;;5.70;;
3881;SDS011;1956;53.482;10.238;2023-10-13T20:56:49;11.40;;;4.10;;
3881;SDS011;1956;53.482;10.238;2023-10-13T21:01:50;13.03;;;3.80;;
3881;SDS011;1956;53.482;10.238;2023-10-13T21:06:50;7.10;;;4.40;;
3881;SDS011;1956;53.482;10.238;2023-10-13T21:11:50;10.07;;;4.20;;
3881;SDS011;1956;53.482;10.238;2023-10-13T21:16:50;9.67;;;3.90;;
3881;SDS011;1956;53.482;10.238;2023-10-13T21:21:52;6.07;;;3.50;;
3881;SDS011;1956;53.482;10.238;2023-10-13T21:26:53;5.00;;;3.40;;
3881;SDS011;1956;53.482;10.238;2023-10-13T21:31:54;7.80;;;3.53;;
3881;SDS011;1956;53.482;10.238;2023-10-13T21:36:54;7.03;;;4.10;;
3881;SDS011;1956;53.482;10.238;2023-10-13T21:41:55;4.57;;;3.53;;
3881;SDS011;1956;53.482;10.238;2023-10-13T21:46:56;8.20;;;3.23;;
3881;SDS011;1956;53.482;10.238;2023-10-13T21:51:56;4.60;;;3.10;;
3881;SDS011;1956;53.482;10.238;2023-10-13T21:56:56;6.53;;;2.80;;
3881;SDS011;1956;53.482;10.238;2023-10-13T22:01:56;10.73;;;2.90;;
3881;SDS011;1956;53.482;10.238;2023-10-13T22:06:57;5.03;;;2.57;;
3881;SDS011;1956;53.482;10.238;2023-10-13T22:12:00;6.30;;;3.23;;
3881;SDS011;1956;53.482;10.238;2023-10-13T22:17:00;5.60;;;2.73;;
3881;SDS011;1956;53.482;10.238;2023-10-13T22:22:00;6.75;;;4.00;;
3881;SDS011;1956;53.482;10.238;2023-10-13T22:27:00;10.43;;;3.87;;
3881;SDS011;1956;53.482;10.238;2023-10-13T22:32:01;10.63;;;4.33;;
3881;SDS011;1956;53.482;10.238;2023-10-13T22:37:01;9.13;;;5.40;;
3881;SDS011;1956;53.482;10.238;2023-10-13T22:42:01;10.73;;;4.82;;
3881;SDS011;1956;53.482;10.238;2023-10-13T22:47:02;9.57;;;5.17;;
3881;SDS011;1956;53.482;10.238;2023-10-13T22:52:03;10.90;;;5.30;;
3881;SDS011;1956;53.482;10.238;2023-10-13T22:57:03;14.80;;;6.60;;
3881;SDS011;1956;53.482;10.238;2023-10-13T23:02:04;12.80;;;5.37;;
3881;SDS011;1956;53.482;10.238;2023-10-13T23:07:05;9.90;;;6.10;;
3881;SDS011;1956;53.482;10.238;2023-10-13T23:12:17;10.53;;;5.30;;
3881;SDS011;1956;53.482;10.238;2023-10-13T23:17:18;11.67;;;6.07;;
3881;SDS011;1956;53.482;10.238;2023-10-13T23:22:20;9.73;;;5.60;;
3881;SDS011;1956;53.482;10.238;2023-10-13T23:27:22;11.23;;;6.50;;
3881;SDS011;1956;53.482;10.238;2023-10-13T23:32:22;18.37;;;7.07;;
3881;SDS011;1956;53.482;10.238;2023-10-13T23:37:23;16.63;;;7.00;;
3881;SDS011;1956;53.482;10.238;2023-10-13T23:42:30;16.20;;;8.10;;
3881;SDS011;1956;53.482;10.238;2023-10-13T23:47:50;15.50;;;8.30;;
3881;SDS011;1956;53.482;10.238;2023-10-13T23:52:51;16.03;;;8.43;;
3881;SDS011;1956;53.482;10.238;2023-10-13T23:57:55;15.17;;;7.90;;
